createdAt,value
2023-03-21T00:00:46.503Z,95743.69
2023-03-21T00:03:14.515Z,95747.09
2023-03-21T00:05:42.998Z,95739.63
2023-03-21T00:08:10.325Z,95751.63
2023-03-21T00:10:41.687Z,95756.28
2023-03-21T00:13:11.518Z,95749.66
2023-03-21T00:15:44.289Z,95743.81
2023-03-21T00:18:19.927Z,95744.59
2023-03-21T00:21:15.796Z,95741.34
2023-03-21T00:23:45.040Z,95729.47
2023-03-21T00:26:13.078Z,95734.31
2023-03-21T00:28:42.710Z,95725.81
2023-03-21T00:31:11.042Z,95725.22
2023-03-21T00:33:39.614Z,95728.31
2023-03-21T00:36:08.704Z,95731.94
2023-03-21T00:38:37.122Z,95722.06
2023-03-21T00:41:18.809Z,95719.44
2023-03-21T00:43:48.378Z,95721.44
2023-03-21T00:46:15.589Z,95721.84
2023-03-21T00:48:44.643Z,95715.78
2023-03-21T00:51:15.237Z,95713.75
2023-03-21T00:53:42.999Z,95715.16
2023-03-21T00:56:10.662Z,95710.44
2023-03-21T00:58:37.799Z,95716.88
2023-03-21T01:01:05.379Z,95710.66
2023-03-21T01:03:33.956Z,95705.22
2023-03-21T01:06:02.539Z,95703.22
2023-03-21T01:09:25.756Z,95710.09
2023-03-21T01:11:53.399Z,95701.97
2023-03-21T01:14:23.798Z,95713.22
2023-03-21T01:16:52.887Z,95711.22
2023-03-21T01:19:30.879Z,95712.00
2023-03-21T01:22:06.586Z,95709.19
2023-03-21T01:24:35.608Z,95705.38
2023-03-21T01:27:04.935Z,95700.91
2023-03-21T01:29:32.117Z,95708.34
2023-03-21T01:31:59.356Z,95707.53
2023-03-21T01:34:26.535Z,95708.75
2023-03-21T01:36:53.699Z,95704.72
2023-03-21T01:39:22.495Z,95704.47
2023-03-21T01:41:49.754Z,95698.69
2023-03-21T01:44:18.991Z,95707.16
2023-03-21T01:46:56.976Z,95700.03
2023-03-21T01:49:35.786Z,95699.06
2023-03-21T01:52:13.023Z,95702.91
2023-03-21T01:54:48.800Z,95703.31
2023-03-21T01:57:24.118Z,95704.47
2023-03-21T01:59:54.735Z,95704.56
2023-03-21T02:02:27.474Z,95695.06
2023-03-21T02:04:56.513Z,95694.66
2023-03-21T02:07:28.375Z,95699.34
2023-03-21T02:09:59.573Z,95697.00
2023-03-21T02:12:27.395Z,95694.66
2023-03-21T02:14:57.336Z,95701.34
2023-03-21T02:17:34.393Z,95697.28
2023-03-21T02:20:37.273Z,95695.63
2023-03-21T02:23:37.878Z,95692.59
2023-03-21T02:26:44.993Z,95685.13
2023-03-21T02:29:40.675Z,95690.34
2023-03-21T02:32:34.887Z,95695.22
2023-03-21T02:35:28.956Z,95694.16
2023-03-21T02:38:05.356Z,95693.38
2023-03-21T02:40:39.445Z,95700.72
2023-03-21T02:43:23.421Z,95689.56
2023-03-21T02:45:58.091Z,95684.13
2023-03-21T02:48:44.437Z,95680.50
2023-03-21T02:51:22.173Z,95678.06
2023-03-21T02:54:24.534Z,95688.06
2023-03-21T02:56:50.656Z,95671.16
2023-03-21T02:59:23.072Z,95673.31
2023-03-21T03:01:51.758Z,95671.94
2023-03-21T03:04:21.441Z,95674.06
2023-03-21T03:07:10.537Z,95675.38
2023-03-21T03:09:59.894Z,95678.75
2023-03-21T03:12:39.274Z,95680.31
2023-03-21T03:15:21.054Z,95675.59
2023-03-21T03:17:56.391Z,95671.59
2023-03-21T03:20:38.782Z,95682.16
2023-03-21T03:23:18.758Z,95684.16
2023-03-21T03:25:55.029Z,95674.94
2023-03-21T03:28:28.731Z,95684.28
2023-03-21T03:31:08.667Z,95688.28
2023-03-21T03:33:41.604Z,95681.66
2023-03-21T03:36:25.003Z,95676.44
2023-03-21T03:39:00.793Z,95673.13
2023-03-21T03:41:30.217Z,95674.78
2023-03-21T03:44:04.376Z,95670.00
2023-03-21T03:46:37.080Z,95670.53
2023-03-21T03:49:13.215Z,95673.19
2023-03-21T03:51:51.759Z,95675.72
2023-03-21T03:54:25.517Z,95676.72
2023-03-21T03:56:54.870Z,95675.56
2023-03-21T03:59:22.118Z,95668.47
2023-03-21T04:01:49.395Z,95673.94
2023-03-21T04:04:16.535Z,95673.19
2023-03-21T04:06:43.816Z,95677.41
2023-03-21T04:09:20.467Z,95670.38
2023-03-21T04:11:49.336Z,95679.31
2023-03-21T04:14:17.846Z,95663.47
2023-03-21T04:16:45.231Z,95665.97
2023-03-21T04:19:13.053Z,95668.09
2023-03-21T04:21:40.129Z,95668.09
2023-03-21T04:24:07.496Z,95670.31
2023-03-21T04:26:35.479Z,95675.94
2023-03-21T04:29:03.607Z,95671.16
2023-03-21T04:31:33.785Z,95678.72
2023-03-21T04:34:03.629Z,95676.56
2023-03-21T04:36:30.747Z,95676.00
2023-03-21T04:38:58.564Z,95678.78
2023-03-21T04:41:25.766Z,95677.22
2023-03-21T04:43:52.986Z,95678.41
2023-03-21T04:46:20.228Z,95672.66
2023-03-21T04:48:48.774Z,95674.47
2023-03-21T04:51:16.490Z,95667.50
2023-03-21T04:53:43.549Z,95676.50
2023-03-21T04:56:11.169Z,95675.28
2023-03-21T04:58:38.591Z,95674.72
2023-03-21T05:01:06.436Z,95672.03
2023-03-21T05:03:34.595Z,95675.50
2023-03-21T05:06:04.132Z,95685.84
2023-03-21T05:08:31.228Z,95674.13
2023-03-21T05:10:58.585Z,95676.47
2023-03-21T05:13:25.804Z,95679.81
2023-03-21T05:15:53.105Z,95674.97
2023-03-21T05:18:20.246Z,95678.28
2023-03-21T05:20:47.434Z,95677.09
2023-03-21T05:23:16.066Z,95674.69
2023-03-21T05:25:43.085Z,95672.28
2023-03-21T05:28:10.273Z,95676.59
2023-03-21T05:30:37.554Z,95663.88
2023-03-21T05:33:05.129Z,95659.72
2023-03-21T05:35:32.227Z,95659.50
2023-03-21T05:37:59.414Z,95661.09
2023-03-21T05:40:28.227Z,95664.03
2023-03-21T05:42:55.445Z,95665.41
2023-03-21T05:45:22.667Z,95659.50
2023-03-21T05:47:49.943Z,95663.84
2023-03-21T05:50:17.436Z,95658.34
2023-03-21T05:52:44.567Z,95661.06
2023-03-21T05:55:11.797Z,95661.88
2023-03-21T05:57:40.422Z,95660.94
2023-03-21T06:00:09.205Z,95665.47
2023-03-21T06:02:36.380Z,95668.72
2023-03-21T06:05:04.586Z,95670.13
2023-03-21T06:07:31.852Z,95678.94
2023-03-21T06:09:58.976Z,95674.06
2023-03-21T06:12:26.071Z,95679.91
2023-03-21T06:14:54.758Z,95685.16
2023-03-21T06:17:22.128Z,95684.50
2023-03-21T06:19:49.333Z,95685.94
2023-03-21T06:22:16.674Z,95685.41
2023-03-21T06:24:43.738Z,95683.97
2023-03-21T06:27:10.902Z,95688.31
2023-03-21T06:29:38.209Z,95684.09
2023-03-21T06:32:07.449Z,95682.06
2023-03-21T06:34:34.700Z,95690.69
2023-03-21T06:37:01.963Z,95691.28
2023-03-21T06:39:29.025Z,95686.34
2023-03-21T06:41:56.166Z,95688.97
2023-03-21T06:44:23.624Z,95695.78
2023-03-21T06:46:51.368Z,95702.31
2023-03-21T06:49:20.917Z,95701.44
2023-03-21T06:51:48.130Z,95702.19
2023-03-21T06:54:15.390Z,95697.81
2023-03-21T06:56:42.598Z,95702.44
2023-03-21T06:59:09.716Z,95704.88
2023-03-21T07:01:36.870Z,95701.50
2023-03-21T07:04:05.217Z,95703.66
2023-03-21T07:06:33.858Z,95708.81
2023-03-21T07:09:01.018Z,95706.88
2023-03-21T07:11:28.346Z,95706.69
2023-03-21T07:13:55.427Z,95701.34
2023-03-21T07:16:22.624Z,95712.47
2023-03-21T07:18:49.827Z,95710.03
2023-03-21T07:21:17.914Z,95702.81
2023-03-21T07:23:46.471Z,95710.59
2023-03-21T07:26:13.814Z,95705.59
2023-03-21T07:28:41.114Z,95705.19
2023-03-21T07:31:08.312Z,95699.16
2023-03-21T07:33:35.409Z,95713.19
2023-03-21T07:36:02.824Z,95706.44
2023-03-21T07:38:29.935Z,95707.78
2023-03-21T07:41:00.067Z,95707.94
2023-03-21T07:43:27.369Z,95716.09
2023-03-21T07:45:57.484Z,95724.03
2023-03-21T07:48:25.483Z,95723.03
2023-03-21T07:50:52.739Z,95726.50
2023-03-21T07:53:20.434Z,95722.22
2023-03-21T07:55:50.617Z,95722.81
2023-03-21T07:58:19.373Z,95721.94
2023-03-21T08:00:46.746Z,95727.78
2023-03-21T08:03:13.922Z,95726.44
2023-03-21T08:05:42.236Z,95716.25
2023-03-21T08:08:10.553Z,95725.34
2023-03-21T08:10:38.198Z,95730.97
2023-03-21T08:13:05.453Z,95721.84
2023-03-21T08:15:33.973Z,95709.72
2023-03-21T08:18:01.251Z,95720.03
2023-03-21T08:20:29.283Z,95707.38
2023-03-21T08:22:56.744Z,95717.72
2023-03-21T08:25:23.940Z,95723.81
2023-03-21T08:27:52.081Z,95718.66
2023-03-21T08:30:21.855Z,95715.72
2023-03-21T08:32:50.562Z,95715.84
2023-03-21T08:35:19.603Z,95716.44
2023-03-21T08:37:46.808Z,95718.03
2023-03-21T08:40:18.006Z,95718.03
2023-03-21T08:42:46.231Z,95712.50
2023-03-21T08:45:16.020Z,95712.38
2023-03-21T08:47:43.322Z,95698.88
2023-03-21T08:50:14.707Z,95699.44
2023-03-21T08:52:42.646Z,95706.94
2023-03-21T08:55:11.229Z,95700.91
2023-03-21T09:00:10.638Z,95708.56
2023-03-21T09:02:38.148Z,95703.41
2023-03-21T09:05:06.459Z,95709.13
2023-03-21T09:07:35.948Z,95707.13
2023-03-21T09:10:19.781Z,95704.53
2023-03-21T09:12:48.650Z,95699.69
2023-03-21T09:15:15.929Z,95693.63
2023-03-21T09:17:43.088Z,95695.38
2023-03-21T09:20:11.981Z,95694.94
2023-03-21T09:22:42.663Z,95695.19
2023-03-21T09:25:10.271Z,95690.81
2023-03-21T09:27:37.761Z,95692.72
2023-03-21T09:30:06.748Z,95694.22
2023-03-21T09:32:34.357Z,95694.00
2023-03-21T09:35:01.705Z,95701.72
2023-03-21T09:37:29.212Z,95696.47
2023-03-21T09:39:57.889Z,95691.53
2023-03-21T09:42:39.927Z,95706.19
2023-03-21T09:45:18.430Z,95703.72
2023-03-21T09:47:48.793Z,95699.56
2023-03-21T09:50:20.549Z,95699.16
2023-03-21T09:52:54.775Z,95697.84
2023-03-21T09:55:26.554Z,95693.19
2023-03-21T09:58:04.730Z,95689.59
2023-03-21T10:00:37.629Z,95680.09
2023-03-21T10:03:12.218Z,95677.63
2023-03-21T10:05:42.176Z,95676.91
2023-03-21T10:08:17.158Z,95682.53
2023-03-21T10:10:50.558Z,95674.25
2023-03-21T10:13:23.065Z,95668.00
2023-03-21T10:15:50.393Z,95662.25
2023-03-21T10:18:23.953Z,95658.31
2023-03-21T10:20:52.968Z,95668.34
2023-03-21T10:23:22.986Z,95654.59
2023-03-21T10:25:55.852Z,95652.09
2023-03-21T10:28:31.164Z,95655.38
2023-03-21T10:31:03.524Z,95655.81
2023-03-21T10:33:37.112Z,95659.47
2023-03-21T10:36:10.085Z,95654.16
2023-03-21T10:38:45.097Z,95650.06
2023-03-21T10:41:13.755Z,95641.16
2023-03-21T10:43:42.553Z,95639.91
2023-03-21T10:46:13.477Z,95645.91
2023-03-21T10:48:42.941Z,95651.53
2023-03-21T10:51:10.555Z,95647.41
2023-03-21T10:53:45.505Z,95643.88
2023-03-21T10:56:14.753Z,95649.16
2023-03-21T10:58:46.761Z,95640.69
2023-03-21T11:01:24.046Z,95641.56
2023-03-21T11:03:58.309Z,95640.16
2023-03-21T11:06:31.537Z,95639.91
2023-03-21T11:09:05.221Z,95634.38
2023-03-21T11:11:39.284Z,95642.72
2023-03-21T11:14:09.192Z,95640.81
2023-03-21T11:16:41.233Z,95635.56
2023-03-21T11:19:16.171Z,95634.34
2023-03-21T11:21:44.557Z,95634.63
2023-03-21T11:24:16.107Z,95630.28
2023-03-21T11:26:47.943Z,95627.53
2023-03-21T11:29:27.744Z,95622.50
2023-03-21T11:32:00.091Z,95624.66
2023-03-21T11:34:33.347Z,95617.53
2023-03-21T11:37:03.287Z,95619.41
2023-03-21T11:39:37.806Z,95619.78
2023-03-21T11:42:26.187Z,95613.84
2023-03-21T11:45:02.722Z,95605.47
2023-03-21T11:50:04.651Z,95605.91
2023-03-21T11:52:41.191Z,95587.00
2023-03-21T11:55:32.658Z,95580.50
2023-03-21T11:58:17.200Z,95576.50
2023-03-21T12:00:54.440Z,95568.59
2023-03-21T12:03:48.265Z,95567.75
2023-03-21T12:06:25.135Z,95568.72
2023-03-21T12:09:04.975Z,95569.97
2023-03-21T12:11:45.784Z,95573.03
2023-03-21T12:14:27.464Z,95566.19
2023-03-21T12:17:07.397Z,95559.91
2023-03-21T12:20:03.256Z,95554.22
2023-03-21T12:22:45.303Z,95543.94
2023-03-21T12:25:19.519Z,95537.59
2023-03-21T12:28:04.035Z,95529.88
2023-03-21T12:30:47.994Z,95524.22
2023-03-21T12:33:33.094Z,95529.00
2023-03-21T12:36:20.693Z,95527.25
2023-03-21T12:39:00.938Z,95517.56
2023-03-21T12:41:34.473Z,95520.31
2023-03-21T12:44:09.036Z,95518.31
2023-03-21T12:46:45.878Z,95513.59
2023-03-21T12:49:21.971Z,95520.06
2023-03-21T12:51:57.539Z,95507.47
2023-03-21T12:54:33.366Z,95502.75
2023-03-21T12:57:09.037Z,95511.38
2023-03-21T12:59:41.538Z,95515.06
2023-03-21T13:02:22.894Z,95510.91
2023-03-21T13:05:03.814Z,95509.44
2023-03-21T13:07:39.395Z,95496.72
2023-03-21T13:10:15.557Z,95502.84
2023-03-21T13:12:53.533Z,95504.72
2023-03-21T13:15:47.597Z,95496.59
2023-03-21T13:18:29.040Z,95500.78
2023-03-21T13:20:58.170Z,95496.66
2023-03-21T13:23:33.510Z,95491.47
2023-03-21T13:26:00.954Z,95490.50
2023-03-21T13:28:30.572Z,95488.22
2023-03-21T13:31:17.334Z,95486.47
2023-03-21T13:33:50.474Z,95482.78
2023-03-21T13:36:25.290Z,95481.81
2023-03-21T13:38:59.692Z,95474.03
2023-03-21T13:41:33.177Z,95478.53
2023-03-21T13:44:18.993Z,95478.84
2023-03-21T13:46:54.976Z,95470.88
2023-03-21T13:49:35.686Z,95470.13
2023-03-21T13:52:27.008Z,95461.28
2023-03-21T13:54:56.482Z,95460.41
2023-03-21T13:57:38.613Z,95460.78
2023-03-21T14:00:19.212Z,95457.69
2023-03-21T14:02:59.705Z,95449.00
2023-03-21T14:05:29.421Z,95444.00
2023-03-21T14:08:13.630Z,95436.09
2023-03-21T14:10:47.358Z,95439.59
2023-03-21T14:13:19.315Z,95437.59
2023-03-21T14:15:55.999Z,95432.22
2023-03-21T14:18:47.827Z,95428.81
2023-03-21T14:21:23.824Z,95426.22
2023-03-21T14:23:59.954Z,95437.03
2023-03-21T14:26:31.991Z,95426.59
2023-03-21T14:29:02.736Z,95428.03
2023-03-21T14:31:33.017Z,95434.94
2023-03-21T14:34:04.383Z,95432.03
2023-03-21T14:36:43.191Z,95428.44
2023-03-21T14:39:17.592Z,95427.19
2023-03-21T14:41:48.596Z,95428.44
2023-03-21T14:44:24.998Z,95421.47
2023-03-21T14:46:54.777Z,95422.88
2023-03-21T14:49:26.957Z,95424.84
2023-03-21T14:52:01.358Z,95417.91
2023-03-21T14:54:30.826Z,95416.56
2023-03-21T14:57:01.591Z,95414.84
2023-03-21T14:59:34.494Z,95418.88
2023-03-21T15:02:06.168Z,95418.00
2023-03-21T15:04:33.472Z,95416.25
2023-03-21T15:07:03.783Z,95414.13
2023-03-21T15:09:33.915Z,95419.72
2023-03-21T15:12:07.477Z,95421.38
2023-03-21T15:14:37.663Z,95424.03
2023-03-21T15:17:05.613Z,95420.84
2023-03-21T15:19:36.176Z,95422.44
2023-03-21T15:22:15.029Z,95421.09
2023-03-21T15:24:48.827Z,95418.34
2023-03-21T15:27:19.615Z,95420.25
2023-03-21T15:29:51.904Z,95407.81
2023-03-21T15:32:24.961Z,95415.75
2023-03-21T15:34:55.924Z,95420.00
2023-03-21T15:37:27.170Z,95418.59
2023-03-21T15:40:05.934Z,95420.16
2023-03-21T15:42:38.745Z,95408.44
2023-03-21T15:45:19.650Z,95408.69
2023-03-21T15:48:00.470Z,95413.50
2023-03-21T15:50:36.534Z,95406.63
2023-03-21T15:53:11.697Z,95415.13
2023-03-21T15:55:45.603Z,95411.38
2023-03-21T15:58:17.987Z,95413.47
2023-03-21T16:00:52.757Z,95417.44
2023-03-21T16:03:26.033Z,95418.22
2023-03-21T16:06:15.465Z,95422.19
2023-03-21T16:08:47.676Z,95424.56
2023-03-21T16:11:23.632Z,95415.63
2023-03-21T16:13:52.667Z,95423.03
2023-03-21T16:16:24.037Z,95419.66
2023-03-21T16:18:52.773Z,95414.53
2023-03-21T16:21:23.059Z,95422.88
2023-03-21T16:23:51.619Z,95415.25
2023-03-21T16:26:22.543Z,95416.38
2023-03-21T16:28:50.540Z,95423.00
2023-03-21T16:31:19.989Z,95422.00
2023-03-21T16:33:48.321Z,95425.25
2023-03-21T16:36:16.888Z,95418.97
2023-03-21T16:38:44.921Z,95420.84
2023-03-21T16:41:16.341Z,95424.97
2023-03-21T16:43:44.392Z,95424.78
2023-03-21T16:46:16.705Z,95430.91
2023-03-21T16:48:46.560Z,95434.72
2023-03-21T16:51:15.118Z,95422.44
2023-03-21T16:53:42.925Z,95431.94
2023-03-21T16:56:17.006Z,95429.81
2023-03-21T16:58:44.153Z,95434.81
2023-03-21T17:01:13.982Z,95428.84
2023-03-21T17:03:41.237Z,95430.63
2023-03-21T17:06:14.162Z,95437.22
2023-03-21T17:08:41.748Z,95436.09
2023-03-21T17:11:10.646Z,95443.75
2023-03-21T17:13:39.708Z,95439.00
2023-03-21T17:16:07.747Z,95434.69
2023-03-21T17:18:34.873Z,95449.75
2023-03-21T17:21:01.970Z,95451.53
2023-03-21T17:23:29.303Z,95436.63
2023-03-21T17:25:56.476Z,95447.72
2023-03-21T17:28:24.406Z,95444.75
2023-03-21T17:30:53.322Z,95441.63
2023-03-21T17:33:20.509Z,95444.94
2023-03-21T17:35:48.028Z,95455.28
2023-03-21T17:38:17.162Z,95449.41
2023-03-21T17:40:44.384Z,95455.94
2023-03-21T17:43:17.717Z,95454.81
2023-03-21T17:45:44.986Z,95455.28
2023-03-21T17:48:13.592Z,95454.72
2023-03-21T17:50:41.282Z,95453.03
2023-03-21T17:53:08.805Z,95458.72
2023-03-21T17:55:36.560Z,95461.38
2023-03-21T17:58:03.972Z,95460.22
2023-03-21T18:00:31.522Z,95462.47
2023-03-21T18:02:59.186Z,95456.28
2023-03-21T18:05:28.022Z,95456.53
2023-03-21T18:08:10.394Z,95460.69
2023-03-21T18:10:40.298Z,95462.47
2023-03-21T18:13:08.908Z,95459.25
2023-03-21T18:15:38.094Z,95461.31
2023-03-21T18:18:05.949Z,95456.44
2023-03-21T18:20:51.139Z,95463.22
2023-03-21T18:23:19.861Z,95461.63
2023-03-21T18:25:47.232Z,95461.97
2023-03-21T18:28:17.636Z,95466.56
2023-03-21T18:31:07.438Z,95463.63
2023-03-21T18:33:35.186Z,95463.75
2023-03-21T18:36:07.566Z,95461.84
2023-03-21T18:38:35.678Z,95461.16
2023-03-21T18:41:03.295Z,95460.03
2023-03-21T18:46:18.058Z,95462.19
2023-03-21T18:48:45.289Z,95462.94
2023-03-21T18:51:14.908Z,95474.75
2023-03-21T18:53:42.030Z,95469.47
2023-03-21T18:56:10.383Z,95467.41
2023-03-21T18:58:38.352Z,95465.81
2023-03-21T19:01:06.098Z,95475.25
2023-03-21T19:03:37.119Z,95476.19
2023-03-21T19:06:05.559Z,95483.66
2023-03-21T19:08:35.063Z,95492.97
2023-03-21T19:11:05.930Z,95488.03
2023-03-21T19:13:34.163Z,95487.69
2023-03-21T19:16:03.103Z,95491.50
2023-03-21T19:18:49.959Z,95493.13
2023-03-21T19:21:17.760Z,95494.16
2023-03-21T19:26:33.802Z,95496.13
2023-03-21T19:29:01.416Z,95491.41
2023-03-21T19:31:28.653Z,95492.19
2023-03-21T19:33:55.918Z,95488.97
2023-03-21T19:36:23.794Z,95495.75
2023-03-21T19:38:53.883Z,95491.16
2023-03-21T19:41:21.255Z,95492.09
2023-03-21T19:43:54.638Z,95493.59
2023-03-21T19:46:23.290Z,95498.06
2023-03-21T19:48:50.795Z,95486.91
2023-03-21T19:51:28.156Z,95492.19
2023-03-21T19:53:58.916Z,95489.09
2023-03-21T19:56:27.800Z,95496.56
2023-03-21T19:58:55.274Z,95489.66
2023-03-21T20:01:23.327Z,95493.94
2023-03-21T20:03:50.937Z,95485.44
2023-03-21T20:06:19.675Z,95490.13
2023-03-21T20:09:27.244Z,95483.94
2023-03-21T20:11:36.318Z,95491.50
2023-03-21T20:14:03.905Z,95483.34
2023-03-21T20:16:34.709Z,95482.44
2023-03-21T20:19:03.763Z,95483.50
2023-03-21T20:21:36.648Z,95481.78
2023-03-21T20:24:09.736Z,95488.97
2023-03-21T20:26:38.477Z,95487.97
2023-03-21T20:29:48.401Z,95486.34
2023-03-21T20:31:54.684Z,95492.09
2023-03-21T20:34:23.597Z,95494.25
2023-03-21T20:36:51.128Z,95500.03
2023-03-21T20:39:18.491Z,95503.91
2023-03-21T20:41:47.170Z,95498.72
2023-03-21T20:44:44.860Z,95494.75
2023-03-21T20:47:01.734Z,95498.97
2023-03-21T20:49:29.116Z,95491.84
2023-03-21T20:54:43.764Z,95494.19
2023-03-21T20:57:12.395Z,95496.06
2023-03-21T20:59:39.648Z,95495.22
2023-03-21T21:02:07.015Z,95495.09
2023-03-21T21:04:49.729Z,95490.56
2023-03-21T21:07:22.894Z,95498.03
2023-03-21T21:09:50.329Z,95497.66
2023-03-21T21:12:19.534Z,95492.88
2023-03-21T21:14:46.970Z,95492.97
2023-03-21T21:17:31.135Z,95494.75
2023-03-21T21:20:04.921Z,95500.88
2023-03-21T21:22:32.254Z,95496.66
2023-03-21T21:24:59.473Z,95493.25
2023-03-21T21:27:28.215Z,95498.53
2023-03-21T21:29:55.353Z,95490.25
2023-03-21T21:32:22.735Z,95494.94
2023-03-21T21:34:49.818Z,95490.00
2023-03-21T21:37:17.114Z,95484.38
2023-03-21T21:39:44.239Z,95480.38
2023-03-21T21:42:11.574Z,95481.16
2023-03-21T21:44:40.344Z,95495.16
2023-03-21T21:47:07.822Z,95489.91
2023-03-21T21:49:35.233Z,95492.53
2023-03-21T21:52:02.696Z,95491.06
2023-03-21T21:54:29.893Z,95491.75
2023-03-21T21:56:57.472Z,95484.53
2023-03-21T21:59:24.968Z,95489.91
2023-03-21T22:01:55.213Z,95489.22
2023-03-21T22:04:23.318Z,95488.28
2023-03-21T22:06:50.813Z,95485.19
2023-03-21T22:09:20.878Z,95485.41
2023-03-21T22:11:48.992Z,95489.88
2023-03-21T22:14:16.430Z,95487.72
2023-03-21T22:16:44.535Z,95490.13
2023-03-21T22:19:13.551Z,95491.50
2023-03-21T22:21:40.719Z,95484.03
2023-03-21T22:24:08.087Z,95483.22
2023-03-21T22:26:35.501Z,95482.66
2023-03-21T22:29:02.937Z,95486.19
2023-03-21T22:31:30.339Z,95482.41
2023-03-21T22:33:57.475Z,95484.25
2023-03-21T22:36:26.376Z,95484.94
2023-03-21T22:38:53.682Z,95481.50
2023-03-21T22:41:20.879Z,95477.47
2023-03-21T22:43:48.078Z,95481.38
2023-03-21T22:46:15.366Z,95478.38
2023-03-21T22:48:42.835Z,95481.47
2023-03-21T22:51:10.612Z,95482.63
2023-03-21T22:53:39.237Z,95482.50
2023-03-21T22:56:07.876Z,95480.56
2023-03-21T22:58:35.084Z,95479.41
2023-03-21T23:01:02.968Z,95475.97
2023-03-21T23:03:30.134Z,95485.13
2023-03-21T23:05:59.756Z,95481.34
2023-03-21T23:08:28.503Z,95485.25
2023-03-21T23:10:57.274Z,95477.00
2023-03-21T23:13:24.495Z,95478.50
2023-03-21T23:15:51.793Z,95481.47
2023-03-21T23:18:19.078Z,95481.25
2023-03-21T23:20:49.616Z,95489.63
2023-03-21T23:23:16.697Z,95491.66
2023-03-21T23:25:43.895Z,95491.75
2023-03-21T23:28:12.516Z,95482.13
2023-03-21T23:30:39.721Z,95476.84
2023-03-21T23:33:07.181Z,95482.34
2023-03-21T23:35:35.622Z,95483.13
2023-03-21T23:38:02.854Z,95484.19
2023-03-21T23:40:30.734Z,95482.78
2023-03-21T23:42:58.074Z,95477.50
2023-03-21T23:45:27.233Z,95483.28
2023-03-21T23:47:54.463Z,95487.31
2023-03-21T23:50:21.875Z,95487.19
2023-03-21T23:52:49.072Z,95485.00
2023-03-21T23:55:16.280Z,95483.94
2023-03-21T23:57:43.497Z,95488.28
